Fukuoka, Japan

1:45 PM JST on 三月 27, 2017 (GMT +0900)
Fukuoka Jigyo | | Change Station

高度 0 ft 33.59 °N, 130.37 °E | Updated 5 seconds ago

所により曇
所により曇
54.0 °F
体感気温 54.0 °F
8.0
風 変数 風 から 北西
Gusts 13.0 Mph

今日
高い -- | 低 -- °F
--% 降水確率
昨日
高い -- | 低 -- °F
Precip. -- インチ
気圧 30.06 インチ
視程 6.2 マイル
わずか 3000 ft
やや曇 5000 ft
露点温度 39 °F
湿度 58%
降水 0.02 インチ
積雪深 利用不可。
6:13 AM 6:35 PM
二十六夜, 1% visible
METAR RJFF 270430Z 30014KT 9999 FEW030 SCT050 12/01 Q1018 RMK 1CU030 4SC050 A3009
気圧 30.06 インチ
視程 6.2 マイル
わずか 3000 ft
やや曇 5000 ft
露点温度 39 °F
湿度 58%
降水 0.02 インチ
積雪深 利用不可。
6:13 AM 6:35 PM
二十六夜, 1% visible
METAR RJFF 270430Z 30014KT 9999 FEW030 SCT050 12/01 Q1018 RMK 1CU030 4SC050 A3009

Get Severe Weather Alerts

Thanks for signing up!

Be on the lookout for a verification email in your inbox.

You'll start receiving the daily forecast at 8 AM.

×

10-Day Weather Forecast

No radar image for this location.
×

Almanac

天文

Mar. 27, 2017 入り
実時間
常用薄明
航海薄明
天文薄明
可視光の長さ
可照時間
Tomorrow will be .
, % of the Moon is Illuminated

今日の極値

Country Highs Country Lows

Community

WunderPhotos

Upload Photos

1,962,540 写真がアップロードされました!

WunderBlog® & News

Nearby

空気品質

  空気品質 大気質指数 汚染物質
Not available.

積雪深

Station Depth 高度

地震活動

Distance Mag. Time & Date
Minimum magnitude displayed is 2.5.

地震活動

Distance Mag. Time & Date
Minimum magnitude displayed is 2.5.

沿岸の水温

地名 気温

Stations

最寄りの気象観測所

観測所位置 温度 体感気温(寒さ) 露点温度 湿度 Precip. 高度 更新日時 タイプする